sensor_id;sensor_type;location;lat;lon;timestamp;pressure;altitude;pressure_sealevel;temperature;humidity
66880;BME280;72009;51.392;10.234;2024-01-10T00:00:14;99656.34;;;-7.80;77.81
66880;BME280;72009;51.392;10.234;2024-01-10T00:00:36;99665.19;;;-7.80;79.15
66880;BME280;72009;51.392;10.234;2024-01-10T00:00:57;99666.06;;;-7.79;77.98
66880;BME280;72009;51.392;10.234;2024-01-10T00:01:17;99661.69;;;-7.80;78.50
66880;BME280;72009;51.392;10.234;2024-01-10T00:01:38;99663.38;;;-7.79;78.05
66880;BME280;72009;51.392;10.234;2024-01-10T00:01:58;99665.03;;;-7.78;78.55
66880;BME280;72009;51.392;10.234;2024-01-10T00:02:18;99656.88;;;-7.77;78.04
66880;BME280;72009;51.392;10.234;2024-01-10T00:02:39;99661.38;;;-7.77;78.25
66880;BME280;72009;51.392;10.234;2024-01-10T00:02:59;99655.22;;;-7.78;77.73
66880;BME280;72009;51.392;10.234;2024-01-10T00:03:19;99663.06;;;-7.76;78.50
66880;BME280;72009;51.392;10.234;2024-01-10T00:03:40;99660.41;;;-7.76;78.50
66880;BME280;72009;51.392;10.234;2024-01-10T00:04:00;99653.22;;;-7.76;78.95
66880;BME280;72009;51.392;10.234;2024-01-10T00:04:20;99654.19;;;-7.77;78.57
66880;BME280;72009;51.392;10.234;2024-01-10T00:04:41;99655.22;;;-7.78;77.98
66880;BME280;72009;51.392;10.234;2024-01-10T00:05:01;99659.84;;;-7.80;78.15
66880;BME280;72009;51.392;10.234;2024-01-10T00:05:22;99656.34;;;-7.80;78.80
66880;BME280;72009;51.392;10.234;2024-01-10T00:05:42;99652.69;;;-7.79;77.81
66880;BME280;72009;51.392;10.234;2024-01-10T00:06:02;99660.84;;;-7.81;77.62
66880;BME280;72009;51.392;10.234;2024-01-10T00:06:23;99660.84;;;-7.81;77.51
66880;BME280;72009;51.392;10.234;2024-01-10T00:06:44;99657.63;;;-7.84;77.68
66880;BME280;72009;51.392;10.234;2024-01-10T00:07:04;99664.66;;;-7.83;77.44
66880;BME280;72009;51.392;10.234;2024-01-10T00:07:27;99658.34;;;-7.82;78.43
66880;BME280;72009;51.392;10.234;2024-01-10T00:07:48;99662.66;;;-7.81;79.47
66880;BME280;72009;51.392;10.234;2024-01-10T00:08:08;99657.31;;;-7.81;79.02
66880;BME280;72009;51.392;10.234;2024-01-10T00:08:28;99657.16;;;-7.80;79.39
66880;BME280;72009;51.392;10.234;2024-01-10T00:08:49;99656.50;;;-7.82;78.97
66880;BME280;72009;51.392;10.234;2024-01-10T00:09:09;99656.34;;;-7.80;78.65
66880;BME280;72009;51.392;10.234;2024-01-10T00:09:30;99660.00;;;-7.81;78.68
66880;BME280;72009;51.392;10.234;2024-01-10T00:09:50;99659.84;;;-7.80;78.76
66880;BME280;72009;51.392;10.234;2024-01-10T00:10:10;99658.19;;;-7.81;78.74
66880;BME280;72009;51.392;10.234;2024-01-10T00:10:31;99654.66;;;-7.81;79.29
66880;BME280;72009;51.392;10.234;2024-01-10T00:10:54;99651.00;;;-7.80;79.67
66880;BME280;72009;51.392;10.234;2024-01-10T00:11:14;99651.00;;;-7.80;79.72
66880;BME280;72009;51.392;10.234;2024-01-10T00:11:35;99651.16;;;-7.82;79.93
66880;BME280;72009;51.392;10.234;2024-01-10T00:11:55;99655.50;;;-7.81;79.67
66880;BME280;72009;51.392;10.234;2024-01-10T00:12:15;99653.66;;;-7.80;79.40
66880;BME280;72009;51.392;10.234;2024-01-10T00:12:36;99654.50;;;-7.80;79.34
66880;BME280;72009;51.392;10.234;2024-01-10T00:12:56;99654.50;;;-7.80;79.21
66880;BME280;72009;51.392;10.234;2024-01-10T00:13:16;99652.69;;;-7.79;79.71
66880;BME280;72009;51.392;10.234;2024-01-10T00:13:37;99653.53;;;-7.79;79.64
66880;BME280;72009;51.392;10.234;2024-01-10T00:13:57;99657.03;;;-7.78;79.60
66880;BME280;72009;51.392;10.234;2024-01-10T00:14:17;99656.88;;;-7.77;78.92
66880;BME280;72009;51.392;10.234;2024-01-10T00:14:38;99649.88;;;-7.78;79.65
66880;BME280;72009;51.392;10.234;2024-01-10T00:14:58;99657.72;;;-7.76;79.05
66880;BME280;72009;51.392;10.234;2024-01-10T00:15:22;99652.53;;;-7.78;78.83
66880;BME280;72009;51.392;10.234;2024-01-10T00:15:42;99651.00;;;-7.80;79.07
66880;BME280;72009;51.392;10.234;2024-01-10T00:16:02;99653.53;;;-7.79;79.04
66880;BME280;72009;51.392;10.234;2024-01-10T00:16:23;99648.47;;;-7.82;78.65
66880;BME280;72009;51.392;10.234;2024-01-10T00:16:43;99651.97;;;-7.81;78.62
66880;BME280;72009;51.392;10.234;2024-01-10T00:17:04;99651.00;;;-7.80;78.75
66880;BME280;72009;51.392;10.234;2024-01-10T00:17:24;99652.84;;;-7.81;78.03
66880;BME280;72009;51.392;10.234;2024-01-10T00:17:44;99647.50;;;-7.81;78.34
66880;BME280;72009;51.392;10.234;2024-01-10T00:18:05;99643.97;;;-7.81;78.89
66880;BME280;72009;51.392;10.234;2024-01-10T00:18:25;99649.16;;;-7.80;78.52
66880;BME280;72009;51.392;10.234;2024-01-10T00:18:45;99645.66;;;-7.80;78.21
66880;BME280;72009;51.392;10.234;2024-01-10T00:19:05;99644.69;;;-7.79;78.75
66880;BME280;72009;51.392;10.234;2024-01-10T00:19:26;99647.34;;;-7.79;78.43
66880;BME280;72009;51.392;10.234;2024-01-10T00:19:46;99642.16;;;-7.81;78.34
66880;BME280;72009;51.392;10.234;2024-01-10T00:20:07;99638.78;;;-7.83;78.08
66880;BME280;72009;51.392;10.234;2024-01-10T00:20:27;99642.31;;;-7.82;78.39
66880;BME280;72009;51.392;10.234;2024-01-10T00:20:48;99641.31;;;-7.81;78.89
66880;BME280;72009;51.392;10.234;2024-01-10T00:21:09;99640.31;;;-7.80;78.66
66880;BME280;72009;51.392;10.234;2024-01-10T00:21:30;99643.81;;;-7.80;78.81
66880;BME280;72009;51.392;10.234;2024-01-10T00:21:50;99640.31;;;-7.80;78.85
66880;BME280;72009;51.392;10.234;2024-01-10T00:22:10;99639.50;;;-7.81;78.43
66880;BME280;72009;51.392;10.234;2024-01-10T00:22:31;99635.81;;;-7.80;79.33
66880;BME280;72009;51.392;10.234;2024-01-10T00:22:51;99642.84;;;-7.79;79.07
66880;BME280;72009;51.392;10.234;2024-01-10T00:23:14;99637.50;;;-7.79;78.75
66880;BME280;72009;51.392;10.234;2024-01-10T00:23:34;99643.66;;;-7.78;78.64
66880;BME280;72009;51.392;10.234;2024-01-10T00:23:55;99643.50;;;-7.77;78.93
66880;BME280;72009;51.392;10.234;2024-01-10T00:24:15;99640.84;;;-7.77;78.92
66880;BME280;72009;51.392;10.234;2024-01-10T00:24:35;99646.88;;;-7.75;79.16
66880;BME280;72009;51.392;10.234;2024-01-10T00:24:55;99646.03;;;-7.75;78.83
66880;BME280;72009;51.392;10.234;2024-01-10T00:25:18;99639.03;;;-7.76;78.39
66880;BME280;72009;51.392;10.234;2024-01-10T00:25:39;99641.69;;;-7.76;78.06
66880;BME280;72009;51.392;10.234;2024-01-10T00:25:59;99637.19;;;-7.76;78.08
66880;BME280;72009;51.392;10.234;2024-01-10T00:26:20;99637.84;;;-7.74;78.74
66880;BME280;72009;51.392;10.234;2024-01-10T00:26:40;99637.84;;;-7.74;78.93
66880;BME280;72009;51.392;10.234;2024-01-10T00:27:00;99637.84;;;-7.74;78.32
66880;BME280;72009;51.392;10.234;2024-01-10T00:27:23;99636.03;;;-7.73;78.26
66880;BME280;72009;51.392;10.234;2024-01-10T00:27:43;99632.34;;;-7.72;78.57
66880;BME280;72009;51.392;10.234;2024-01-10T00:28:04;99634.03;;;-7.71;78.61
66880;BME280;72009;51.392;10.234;2024-01-10T00:28:25;99631.22;;;-7.69;78.41
66880;BME280;72009;51.392;10.234;2024-01-10T00:28:46;99633.88;;;-7.69;78.42
66880;BME280;72009;51.392;10.234;2024-01-10T00:29:06;99634.91;;;-7.71;78.01
66880;BME280;72009;51.392;10.234;2024-01-10T00:29:26;99635.03;;;-7.72;77.46
66880;BME280;72009;51.392;10.234;2024-01-10T00:29:46;99632.91;;;-7.68;78.25
66880;BME280;72009;51.392;10.234;2024-01-10T00:30:07;99639.22;;;-7.69;78.23
66880;BME280;72009;51.392;10.234;2024-01-10T00:30:28;99630.53;;;-7.72;78.04
66880;BME280;72009;51.392;10.234;2024-01-10T00:30:48;99631.38;;;-7.71;79.09
66880;BME280;72009;51.392;10.234;2024-01-10T00:31:08;99626.88;;;-7.71;78.39
66880;BME280;72009;51.392;10.234;2024-01-10T00:31:28;99628.69;;;-7.71;78.00
66880;BME280;72009;51.392;10.234;2024-01-10T00:31:49;99624.22;;;-7.71;77.61
66880;BME280;72009;51.392;10.234;2024-01-10T00:32:09;99621.53;;;-7.71;78.04
66880;BME280;72009;51.392;10.234;2024-01-10T00:32:29;99626.88;;;-7.71;77.83
66880;BME280;72009;51.392;10.234;2024-01-10T00:32:50;99630.38;;;-7.70;77.73
66880;BME280;72009;51.392;10.234;2024-01-10T00:33:10;99625.03;;;-7.70;77.99
66880;BME280;72009;51.392;10.234;2024-01-10T00:33:31;99630.38;;;-7.70;77.99
66880;BME280;72009;51.392;10.234;2024-01-10T00:33:51;99628.69;;;-7.71;77.79
66880;BME280;72009;51.392;10.234;2024-01-10T00:34:11;99627.72;;;-7.70;77.83
66880;BME280;72009;51.392;10.234;2024-01-10T00:34:31;99630.38;;;-7.70;78.14
66880;BME280;72009;51.392;10.234;2024-01-10T00:34:52;99626.88;;;-7.71;78.04
66880;BME280;72009;51.392;10.234;2024-01-10T00:35:12;99627.88;;;-7.72;78.06
66880;BME280;72009;51.392;10.234;2024-01-10T00:35:32;99631.38;;;-7.71;78.19
66880;BME280;72009;51.392;10.234;2024-01-10T00:35:53;99624.34;;;-7.72;77.85
66880;BME280;72009;51.392;10.234;2024-01-10T00:36:13;99632.34;;;-7.72;77.71
66880;BME280;72009;51.392;10.234;2024-01-10T00:36:33;99627.88;;;-7.72;77.63
66880;BME280;72009;51.392;10.234;2024-01-10T00:36:53;99628.69;;;-7.71;78.06
66880;BME280;72009;51.392;10.234;2024-01-10T00:37:14;99634.03;;;-7.71;78.13
66880;BME280;72009;51.392;10.234;2024-01-10T00:37:34;99631.38;;;-7.71;78.84
66880;BME280;72009;51.392;10.234;2024-01-10T00:37:55;99631.38;;;-7.71;78.08
66880;BME280;72009;51.392;10.234;2024-01-10T00:38:15;99625.19;;;-7.72;77.69
66880;BME280;72009;51.392;10.234;2024-01-10T00:38:36;99627.88;;;-7.72;77.89
66880;BME280;72009;51.392;10.234;2024-01-10T00:38:57;99627.00;;;-7.72;77.38
66880;BME280;72009;51.392;10.234;2024-01-10T00:39:17;99630.69;;;-7.73;78.29
66880;BME280;72009;51.392;10.234;2024-01-10T00:39:37;99627.16;;;-7.74;77.47
66880;BME280;72009;51.392;10.234;2024-01-10T00:39:58;99636.03;;;-7.73;76.79
66880;BME280;72009;51.392;10.234;2024-01-10T00:40:18;99626.50;;;-7.76;76.55
66880;BME280;72009;51.392;10.234;2024-01-10T00:40:38;99632.00;;;-7.77;77.50
66880;BME280;72009;51.392;10.234;2024-01-10T00:40:58;99629.31;;;-7.77;78.19
66880;BME280;72009;51.392;10.234;2024-01-10T00:41:19;99635.66;;;-7.78;77.86
66880;BME280;72009;51.392;10.234;2024-01-10T00:41:39;99625.97;;;-7.79;77.76
66880;BME280;72009;51.392;10.234;2024-01-10T00:41:59;99630.31;;;-7.78;77.70
66880;BME280;72009;51.392;10.234;2024-01-10T00:42:20;99627.63;;;-7.78;77.50
66880;BME280;72009;51.392;10.234;2024-01-10T00:42:40;99632.16;;;-7.79;78.02
66880;BME280;72009;51.392;10.234;2024-01-10T00:43:01;99624.28;;;-7.80;78.14
66880;BME280;72009;51.392;10.234;2024-01-10T00:43:21;99635.81;;;-7.80;77.41
66880;BME280;72009;51.392;10.234;2024-01-10T00:43:42;99629.47;;;-7.79;77.68
66880;BME280;72009;51.392;10.234;2024-01-10T00:44:02;99628.66;;;-7.79;77.06
66880;BME280;72009;51.392;10.234;2024-01-10T00:44:22;99631.47;;;-7.81;77.19
66880;BME280;72009;51.392;10.234;2024-01-10T00:44:42;99626.28;;;-7.82;77.44
66880;BME280;72009;51.392;10.234;2024-01-10T00:45:03;99629.06;;;-7.84;77.77
66880;BME280;72009;51.392;10.234;2024-01-10T00:45:23;99622.09;;;-7.85;78.29
66880;BME280;72009;51.392;10.234;2024-01-10T00:45:44;99621.53;;;-7.89;78.06
66880;BME280;72009;51.392;10.234;2024-01-10T00:46:04;99632.06;;;-7.87;77.69
66880;BME280;72009;51.392;10.234;2024-01-10T00:46:24;99630.25;;;-7.86;77.89
66880;BME280;72009;51.392;10.234;2024-01-10T00:46:44;99622.38;;;-7.88;77.82
66880;BME280;72009;51.392;10.234;2024-01-10T00:47:05;99626.88;;;-7.89;77.21
66880;BME280;72009;51.392;10.234;2024-01-10T00:47:25;99632.22;;;-7.89;77.42
66880;BME280;72009;51.392;10.234;2024-01-10T00:47:48;99626.03;;;-7.89;78.37
66880;BME280;72009;51.392;10.234;2024-01-10T00:48:08;99630.41;;;-7.88;78.15
66880;BME280;72009;51.392;10.234;2024-01-10T00:48:28;99635.91;;;-7.90;78.12
66880;BME280;72009;51.392;10.234;2024-01-10T00:48:49;99628.72;;;-7.89;77.75
66880;BME280;72009;51.392;10.234;2024-01-10T00:49:09;99634.88;;;-7.89;78.00
66880;BME280;72009;51.392;10.234;2024-01-10T00:49:29;99627.19;;;-7.92;78.09
66880;BME280;72009;51.392;10.234;2024-01-10T00:49:50;99628.72;;;-7.89;77.80
66880;BME280;72009;51.392;10.234;2024-01-10T00:50:10;99632.53;;;-7.92;78.33
66880;BME280;72009;51.392;10.234;2024-01-10T00:50:30;99630.56;;;-7.90;78.92
66880;BME280;72009;51.392;10.234;2024-01-10T00:50:51;99629.38;;;-7.87;79.02
66880;BME280;72009;51.392;10.234;2024-01-10T00:51:11;99635.59;;;-7.86;78.53
66880;BME280;72009;51.392;10.234;2024-01-10T00:51:31;99629.53;;;-7.89;77.83
66880;BME280;72009;51.392;10.234;2024-01-10T00:51:52;99621.69;;;-7.90;78.27
66880;BME280;72009;51.392;10.234;2024-01-10T00:52:12;99626.88;;;-7.89;78.98
66880;BME280;72009;51.392;10.234;2024-01-10T00:52:32;99624.19;;;-7.89;78.49
66880;BME280;72009;51.392;10.234;2024-01-10T00:52:52;99631.38;;;-7.89;78.86
66880;BME280;72009;51.392;10.234;2024-01-10T00:53:13;99629.53;;;-7.89;78.68
66880;BME280;72009;51.392;10.234;2024-01-10T00:53:36;99628.72;;;-7.89;78.61
66880;BME280;72009;51.392;10.234;2024-01-10T00:53:56;99628.72;;;-7.89;78.72
66880;BME280;72009;51.392;10.234;2024-01-10T00:54:17;99626.03;;;-7.89;79.08
66880;BME280;72009;51.392;10.234;2024-01-10T00:54:37;99631.38;;;-7.89;79.40
66880;BME280;72009;51.392;10.234;2024-01-10T00:54:57;99622.38;;;-7.88;79.25
66880;BME280;72009;51.392;10.234;2024-01-10T00:55:18;99622.38;;;-7.88;78.69
66880;BME280;72009;51.392;10.234;2024-01-10T00:55:38;99625.06;;;-7.88;79.13
66880;BME280;72009;51.392;10.234;2024-01-10T00:55:58;99630.56;;;-7.90;78.98
66880;BME280;72009;51.392;10.234;2024-01-10T00:56:18;99625.22;;;-7.90;78.63
66880;BME280;72009;51.392;10.234;2024-01-10T00:56:39;99625.22;;;-7.90;78.47
66880;BME280;72009;51.392;10.234;2024-01-10T00:56:59;99619.00;;;-7.90;79.00
66880;BME280;72009;51.392;10.234;2024-01-10T00:57:19;99622.53;;;-7.90;79.69
66880;BME280;72009;51.392;10.234;2024-01-10T00:57:40;99621.53;;;-7.89;78.81
66880;BME280;72009;51.392;10.234;2024-01-10T00:58:00;99619.72;;;-7.88;78.94
66880;BME280;72009;51.392;10.234;2024-01-10T00:58:20;99620.56;;;-7.88;79.42
66880;BME280;72009;51.392;10.234;2024-01-10T00:58:40;99622.22;;;-7.86;79.43
66880;BME280;72009;51.392;10.234;2024-01-10T00:59:01;99624.91;;;-7.86;80.42
66880;BME280;72009;51.392;10.234;2024-01-10T00:59:21;99627.56;;;-7.86;79.83
66880;BME280;72009;51.392;10.234;2024-01-10T00:59:41;99618.69;;;-7.87;80.27
66880;BME280;72009;51.392;10.234;2024-01-10T01:00:02;99619.56;;;-7.86;79.74
66880;BME280;72009;51.392;10.234;2024-01-10T01:00:22;99625.59;;;-7.84;79.86
66880;BME280;72009;51.392;10.234;2024-01-10T01:00:42;99625.59;;;-7.84;78.77
66880;BME280;72009;51.392;10.234;2024-01-10T01:01:03;99618.56;;;-7.85;78.40
66880;BME280;72009;51.392;10.234;2024-01-10T01:01:24;99624.75;;;-7.85;79.43
66880;BME280;72009;51.392;10.234;2024-01-10T01:01:44;99621.22;;;-7.85;78.99
66880;BME280;72009;51.392;10.234;2024-01-10T01:02:04;99627.28;;;-7.83;79.00
66880;BME280;72009;51.392;10.234;2024-01-10T01:02:24;99624.59;;;-7.83;79.63
66880;BME280;72009;51.392;10.234;2024-01-10T01:02:45;99623.63;;;-7.82;79.88
66880;BME280;72009;51.392;10.234;2024-01-10T01:03:06;99628.09;;;-7.83;79.16
66880;BME280;72009;51.392;10.234;2024-01-10T01:03:26;99624.75;;;-7.85;78.57
66880;BME280;72009;51.392;10.234;2024-01-10T01:03:46;99620.25;;;-7.84;78.85
66880;BME280;72009;51.392;10.234;2024-01-10T01:04:07;99629.94;;;-7.83;79.17
66880;BME280;72009;51.392;10.234;2024-01-10T01:04:27;99624.59;;;-7.83;78.43
66880;BME280;72009;51.392;10.234;2024-01-10T01:04:47;99624.59;;;-7.83;78.78
66880;BME280;72009;51.392;10.234;2024-01-10T01:05:08;99624.75;;;-7.85;78.14
66880;BME280;72009;51.392;10.234;2024-01-10T01:05:28;99625.88;;;-7.88;78.14
66880;BME280;72009;51.392;10.234;2024-01-10T01:05:48;99623.22;;;-7.88;78.46
66880;BME280;72009;51.392;10.234;2024-01-10T01:06:09;99620.56;;;-7.88;78.41
66880;BME280;72009;51.392;10.234;2024-01-10T01:06:29;99623.22;;;-7.88;78.07
66880;BME280;72009;51.392;10.234;2024-01-10T01:06:49;99624.03;;;-7.87;78.51
66880;BME280;72009;51.392;10.234;2024-01-10T01:07:09;99625.88;;;-7.88;78.38
66880;BME280;72009;51.392;10.234;2024-01-10T01:07:30;99621.53;;;-7.89;77.70
66880;BME280;72009;51.392;10.234;2024-01-10T01:07:50;99625.22;;;-7.90;78.56
66880;BME280;72009;51.392;10.234;2024-01-10T01:08:10;99619.88;;;-7.90;78.75
66880;BME280;72009;51.392;10.234;2024-01-10T01:08:31;99613.66;;;-7.90;78.56
66880;BME280;72009;51.392;10.234;2024-01-10T01:08:51;99626.88;;;-7.89;78.62
66880;BME280;72009;51.392;10.234;2024-01-10T01:09:14;99623.38;;;-7.89;78.14
66880;BME280;72009;51.392;10.234;2024-01-10T01:09:35;99613.66;;;-7.90;79.31
66880;BME280;72009;51.392;10.234;2024-01-10T01:09:55;99619.00;;;-7.90;79.24
66880;BME280;72009;51.392;10.234;2024-01-10T01:10:15;99618.19;;;-7.91;78.62
66880;BME280;72009;51.392;10.234;2024-01-10T01:10:36;99619.00;;;-7.90;78.26
66880;BME280;72009;51.392;10.234;2024-01-10T01:10:56;99624.34;;;-7.90;79.10
66880;BME280;72009;51.392;10.234;2024-01-10T01:11:16;99619.16;;;-7.92;78.56
66880;BME280;72009;51.392;10.234;2024-01-10T01:11:36;99621.00;;;-7.92;79.03
66880;BME280;72009;51.392;10.234;2024-01-10T01:11:57;99616.13;;;-7.97;78.75
66880;BME280;72009;51.392;10.234;2024-01-10T01:12:17;99618.81;;;-7.97;77.83
66880;BME280;72009;51.392;10.234;2024-01-10T01:12:37;99619.78;;;-7.98;77.67
66880;BME280;72009;51.392;10.234;2024-01-10T01:12:58;99615.44;;;-7.99;78.01
66880;BME280;72009;51.392;10.234;2024-01-10T01:13:18;99626.97;;;-7.98;77.74
66880;BME280;72009;51.392;10.234;2024-01-10T01:13:38;99620.78;;;-7.99;78.51
66880;BME280;72009;51.392;10.234;2024-01-10T01:13:58;99619.94;;;-7.99;78.77
66880;BME280;72009;51.392;10.234;2024-01-10T01:14:19;99619.94;;;-7.99;78.03
66880;BME280;72009;51.392;10.234;2024-01-10T01:14:39;99619.25;;;-8.01;78.89
66880;BME280;72009;51.392;10.234;2024-01-10T01:14:59;99619.56;;;-8.04;78.03
66880;BME280;72009;51.392;10.234;2024-01-10T01:15:20;99630.09;;;-8.03;77.75
66880;BME280;72009;51.392;10.234;2024-01-10T01:15:40;99620.41;;;-8.04;77.75
66880;BME280;72009;51.392;10.234;2024-01-10T01:16:00;99619.72;;;-8.06;77.74
66880;BME280;72009;51.392;10.234;2024-01-10T01:16:20;99625.06;;;-8.06;78.22
66880;BME280;72009;51.392;10.234;2024-01-10T01:16:41;99626.06;;;-8.07;78.02
66880;BME280;72009;51.392;10.234;2024-01-10T01:17:01;99620.88;;;-8.09;78.14
66880;BME280;72009;51.392;10.234;2024-01-10T01:17:21;99625.19;;;-8.08;78.87
66880;BME280;72009;51.392;10.234;2024-01-10T01:17:41;99623.69;;;-8.10;78.62
66880;BME280;72009;51.392;10.234;2024-01-10T01:18:02;99624.50;;;-8.10;78.38
66880;BME280;72009;51.392;10.234;2024-01-10T01:18:22;99622.00;;;-8.11;78.71
66880;BME280;72009;51.392;10.234;2024-01-10T01:18:42;99620.16;;;-8.11;79.09
66880;BME280;72009;51.392;10.234;2024-01-10T01:19:03;99626.50;;;-8.12;78.65
66880;BME280;72009;51.392;10.234;2024-01-10T01:19:23;99621.31;;;-8.13;78.82
66880;BME280;72009;51.392;10.234;2024-01-10T01:19:43;99626.50;;;-8.12;78.65
66880;BME280;72009;51.392;10.234;2024-01-10T01:20:04;99624.81;;;-8.13;78.28
66880;BME280;72009;51.392;10.234;2024-01-10T01:20:25;99620.63;;;-8.15;78.29
66880;BME280;72009;51.392;10.234;2024-01-10T01:20:45;99617.28;;;-8.17;79.02
66880;BME280;72009;51.392;10.234;2024-01-10T01:21:05;99622.63;;;-8.17;78.10
66880;BME280;72009;51.392;10.234;2024-01-10T01:21:25;99618.25;;;-8.18;78.45
66880;BME280;72009;51.392;10.234;2024-01-10T01:21:46;99618.56;;;-8.21;77.56
66880;BME280;72009;51.392;10.234;2024-01-10T01:22:06;99625.91;;;-8.24;78.00
66880;BME280;72009;51.392;10.234;2024-01-10T01:22:26;99620.41;;;-8.22;78.19
66880;BME280;72009;51.392;10.234;2024-01-10T01:22:47;99627.56;;;-8.23;78.91
66880;BME280;72009;51.392;10.234;2024-01-10T01:23:07;99624.88;;;-8.23;78.92
66880;BME280;72009;51.392;10.234;2024-01-10T01:23:27;99614.19;;;-8.23;78.75
66880;BME280;72009;51.392;10.234;2024-01-10T01:23:47;99617.88;;;-8.24;78.25
66880;BME280;72009;51.392;10.234;2024-01-10T01:24:08;99619.84;;;-8.26;78.89
66880;BME280;72009;51.392;10.234;2024-01-10T01:24:28;99615.38;;;-8.25;78.79
66880;BME280;72009;51.392;10.234;2024-01-10T01:24:48;99617.19;;;-8.26;78.80
66880;BME280;72009;51.392;10.234;2024-01-10T01:25:09;99617.34;;;-8.27;78.74
66880;BME280;72009;51.392;10.234;2024-01-10T01:25:29;99614.81;;;-8.29;78.69
66880;BME280;72009;51.392;10.234;2024-01-10T01:25:49;99615.94;;;-8.31;78.60
66880;BME280;72009;51.392;10.234;2024-01-10T01:26:10;99621.16;;;-8.30;78.35
66880;BME280;72009;51.392;10.234;2024-01-10T01:26:30;99616.81;;;-8.31;78.82
66880;BME280;72009;51.392;10.234;2024-01-10T01:26:50;99620.59;;;-8.33;77.84
66880;BME280;72009;51.392;10.234;2024-01-10T01:27:11;99618.91;;;-8.34;78.65
66880;BME280;72009;51.392;10.234;2024-01-10T01:27:31;99614.75;;;-8.37;78.32
66880;BME280;72009;51.392;10.234;2024-01-10T01:27:51;99615.72;;;-8.38;78.13
66880;BME280;72009;51.392;10.234;2024-01-10T01:28:11;99621.38;;;-8.41;78.50
66880;BME280;72009;51.392;10.234;2024-01-10T01:28:32;99621.38;;;-8.41;78.64
66880;BME280;72009;51.392;10.234;2024-01-10T01:28:52;99615.31;;;-8.43;78.55
66880;BME280;72009;51.392;10.234;2024-01-10T01:29:12;99615.31;;;-8.43;79.11
66880;BME280;72009;51.392;10.234;2024-01-10T01:29:33;99613.50;;;-8.43;80.91
66880;BME280;72009;51.392;10.234;2024-01-10T01:29:53;99618.84;;;-8.43;79.56
66880;BME280;72009;51.392;10.234;2024-01-10T01:30:13;99614.50;;;-8.44;79.66
66880;BME280;72009;51.392;10.234;2024-01-10T01:30:33;99609.16;;;-8.44;80.27
66880;BME280;72009;51.392;10.234;2024-01-10T01:30:54;99614.50;;;-8.44;79.36
66880;BME280;72009;51.392;10.234;2024-01-10T01:31:14;99613.66;;;-8.44;79.59
66880;BME280;72009;51.392;10.234;2024-01-10T01:31:35;99616.84;;;-8.41;80.33
66880;BME280;72009;51.392;10.234;2024-01-10T01:31:55;99616.84;;;-8.41;80.07
66880;BME280;72009;51.392;10.234;2024-01-10T01:32:15;99614.50;;;-8.44;79.52
66880;BME280;72009;51.392;10.234;2024-01-10T01:32:35;99614.66;;;-8.45;79.71
66880;BME280;72009;51.392;10.234;2024-01-10T01:32:56;99619.16;;;-8.46;79.47
66880;BME280;72009;51.392;10.234;2024-01-10T01:33:16;99614.66;;;-8.45;79.54
66880;BME280;72009;51.392;10.234;2024-01-10T01:33:36;99617.31;;;-8.45;80.09
66880;BME280;72009;51.392;10.234;2024-01-10T01:33:57;99612.81;;;-8.45;80.21
66880;BME280;72009;51.392;10.234;2024-01-10T01:34:17;99611.00;;;-8.44;80.70
66880;BME280;72009;51.392;10.234;2024-01-10T01:34:37;99619.00;;;-8.44;81.90
66880;BME280;72009;51.392;10.234;2024-01-10T01:34:57;99614.50;;;-8.44;81.83
66880;BME280;72009;51.392;10.234;2024-01-10T01:35:18;99616.34;;;-8.44;81.40
66880;BME280;72009;51.392;10.234;2024-01-10T01:35:38;99618.00;;;-8.43;81.29
66880;BME280;72009;51.392;10.234;2024-01-10T01:35:58;99615.19;;;-8.42;81.43
66880;BME280;72009;51.392;10.234;2024-01-10T01:36:19;99618.00;;;-8.43;80.94
66880;BME280;72009;51.392;10.234;2024-01-10T01:36:39;99616.19;;;-8.43;80.81
66880;BME280;72009;51.392;10.234;2024-01-10T01:36:59;99605.66;;;-8.44;80.44
66880;BME280;72009;51.392;10.234;2024-01-10T01:37:20;99610.84;;;-8.43;80.76
66880;BME280;72009;51.392;10.234;2024-01-10T01:37:40;99615.19;;;-8.42;80.31
66880;BME280;72009;51.392;10.234;2024-01-10T01:38:00;99613.50;;;-8.43;80.86
66880;BME280;72009;51.392;10.234;2024-01-10T01:38:21;99611.00;;;-8.44;81.13
66880;BME280;72009;51.392;10.234;2024-01-10T01:38:41;99611.00;;;-8.44;81.78
66880;BME280;72009;51.392;10.234;2024-01-10T01:39:01;99613.66;;;-8.44;81.15
66880;BME280;72009;51.392;10.234;2024-01-10T01:39:21;99609.97;;;-8.43;80.73
66880;BME280;72009;51.392;10.234;2024-01-10T01:39:42;99616.34;;;-8.44;80.82
66880;BME280;72009;51.392;10.234;2024-01-10T01:40:02;99610.13;;;-8.45;81.06
66880;BME280;72009;51.392;10.234;2024-01-10T01:40:22;99609.16;;;-8.44;81.24
66880;BME280;72009;51.392;10.234;2024-01-10T01:40:43;99612.53;;;-8.42;81.11
66880;BME280;72009;51.392;10.234;2024-01-10T01:41:03;99618.00;;;-8.43;80.42
66880;BME280;72009;51.392;10.234;2024-01-10T01:41:23;99612.66;;;-8.43;81.42
66880;BME280;72009;51.392;10.234;2024-01-10T01:41:44;99616.03;;;-8.41;81.25
66880;BME280;72009;51.392;10.234;2024-01-10T01:42:04;99609.88;;;-8.42;81.18
66880;BME280;72009;51.392;10.234;2024-01-10T01:42:25;99610.69;;;-8.41;80.56
66880;BME280;72009;51.392;10.234;2024-01-10T01:42:46;99611.81;;;-8.44;80.41
66880;BME280;72009;51.392;10.234;2024-01-10T01:43:23;99612.66;;;-8.43;80.51
66880;BME280;72009;51.392;10.234;2024-01-10T01:43:44;99618.13;;;-8.45;80.02
66880;BME280;72009;51.392;10.234;2024-01-10T01:44:04;99612.66;;;-8.43;80.48
66880;BME280;72009;51.392;10.234;2024-01-10T01:44:24;99616.19;;;-8.43;81.70
66880;BME280;72009;51.392;10.234;2024-01-10T01:44:46;99613.50;;;-8.43;80.98
66880;BME280;72009;51.392;10.234;2024-01-10T01:45:07;99612.66;;;-8.43;80.39
66880;BME280;72009;51.392;10.234;2024-01-10T01:45:27;99613.50;;;-8.43;80.74
66880;BME280;72009;51.392;10.234;2024-01-10T01:45:51;99618.28;;;-8.46;80.44
66880;BME280;72009;51.392;10.234;2024-01-10T01:46:12;99610.59;;;-8.49;80.36
66880;BME280;72009;51.392;10.234;2024-01-10T01:46:33;99608.94;;;-8.50;80.00
66880;BME280;72009;51.392;10.234;2024-01-10T01:46:53;99613.41;;;-8.51;80.22
66880;BME280;72009;51.392;10.234;2024-01-10T01:47:14;99613.41;;;-8.51;80.30